sensor_id;sensor_type;location;lat;lon;timestamp;temperature;humidity
34766;DHT22;20984;43.508;1.504;2023-01-23T00:01:20;-0.20;99.90
34766;DHT22;20984;43.508;1.504;2023-01-23T00:03:47;-0.20;99.90
34766;DHT22;20984;43.508;1.504;2023-01-23T00:06:15;-0.20;99.90
34766;DHT22;20984;43.508;1.504;2023-01-23T00:08:43;-0.20;99.90
34766;DHT22;20984;43.508;1.504;2023-01-23T00:11:18;-0.20;99.90
34766;DHT22;20984;43.508;1.504;2023-01-23T00:13:44;-0.20;99.90
34766;DHT22;20984;43.508;1.504;2023-01-23T00:16:16;-0.20;99.90
34766;DHT22;20984;43.508;1.504;2023-01-23T00:18:42;-0.20;99.90
34766;DHT22;20984;43.508;1.504;2023-01-23T00:21:10;-0.20;99.90
34766;DHT22;20984;43.508;1.504;2023-01-23T00:23:37;-0.20;99.90
34766;DHT22;20984;43.508;1.504;2023-01-23T00:26:07;-0.20;99.90
34766;DHT22;20984;43.508;1.504;2023-01-23T00:28:35;-0.20;99.90
34766;DHT22;20984;43.508;1.504;2023-01-23T00:31:06;-0.20;99.90
34766;DHT22;20984;43.508;1.504;2023-01-23T00:33:32;-0.20;99.90
34766;DHT22;20984;43.508;1.504;2023-01-23T00:35:58;-0.20;99.90
34766;DHT22;20984;43.508;1.504;2023-01-23T00:38:24;-0.20;99.90
34766;DHT22;20984;43.508;1.504;2023-01-23T00:40:50;-0.20;99.90
34766;DHT22;20984;43.508;1.504;2023-01-23T00:43:15;-0.20;99.90
34766;DHT22;20984;43.508;1.504;2023-01-23T00:45:41;-0.20;99.90
34766;DHT22;20984;43.508;1.504;2023-01-23T00:48:07;-0.20;99.90
34766;DHT22;20984;43.508;1.504;2023-01-23T00:50:33;-0.20;99.90
34766;DHT22;20984;43.508;1.504;2023-01-23T00:52:58;-0.20;99.90
34766;DHT22;20984;43.508;1.504;2023-01-23T00:55:24;-0.20;99.90
34766;DHT22;20984;43.508;1.504;2023-01-23T00:57:50;-0.20;99.90
34766;DHT22;20984;43.508;1.504;2023-01-23T01:00:16;-0.20;99.90
34766;DHT22;20984;43.508;1.504;2023-01-23T01:02:42;-0.20;99.90
34766;DHT22;20984;43.508;1.504;2023-01-23T01:05:08;-0.20;99.90
34766;DHT22;20984;43.508;1.504;2023-01-23T01:07:33;-0.20;99.90
34766;DHT22;20984;43.508;1.504;2023-01-23T01:09:59;-0.20;99.90
34766;DHT22;20984;43.508;1.504;2023-01-23T01:12:25;-0.10;99.90
34766;DHT22;20984;43.508;1.504;2023-01-23T01:14:50;-0.10;99.90
34766;DHT22;20984;43.508;1.504;2023-01-23T01:17:16;-0.10;99.90
34766;DHT22;20984;43.508;1.504;2023-01-23T01:19:42;-0.10;99.90
34766;DHT22;20984;43.508;1.504;2023-01-23T01:22:07;-0.20;99.90
34766;DHT22;20984;43.508;1.504;2023-01-23T01:24:33;-0.20;99.90
34766;DHT22;20984;43.508;1.504;2023-01-23T01:26:59;-0.20;99.90
34766;DHT22;20984;43.508;1.504;2023-01-23T01:29:24;-0.10;99.90
34766;DHT22;20984;43.508;1.504;2023-01-23T01:31:50;-0.10;99.90
34766;DHT22;20984;43.508;1.504;2023-01-23T01:34:16;-0.20;99.90
34766;DHT22;20984;43.508;1.504;2023-01-23T01:36:42;-0.10;99.90
34766;DHT22;20984;43.508;1.504;2023-01-23T01:39:07;-0.10;99.90
34766;DHT22;20984;43.508;1.504;2023-01-23T01:41:33;-0.10;99.90
34766;DHT22;20984;43.508;1.504;2023-01-23T01:44:00;-0.20;99.90
34766;DHT22;20984;43.508;1.504;2023-01-23T01:46:28;-0.20;99.90
34766;DHT22;20984;43.508;1.504;2023-01-23T01:49:22;-0.20;99.90
34766;DHT22;20984;43.508;1.504;2023-01-23T01:54:22;-0.20;99.90
34766;DHT22;20984;43.508;1.504;2023-01-23T01:59:28;-0.20;99.90
34766;DHT22;20984;43.508;1.504;2023-01-23T02:02:10;-0.20;99.90
34766;DHT22;20984;43.508;1.504;2023-01-23T02:04:41;-0.20;99.90
34766;DHT22;20984;43.508;1.504;2023-01-23T02:07:14;-0.20;99.90
34766;DHT22;20984;43.508;1.504;2023-01-23T02:09:43;-0.20;99.90
34766;DHT22;20984;43.508;1.504;2023-01-23T02:12:09;-0.20;99.90
34766;DHT22;20984;43.508;1.504;2023-01-23T02:14:35;-0.20;99.90
34766;DHT22;20984;43.508;1.504;2023-01-23T02:17:01;-0.20;99.90
34766;DHT22;20984;43.508;1.504;2023-01-23T02:19:36;-0.20;99.90
34766;DHT22;20984;43.508;1.504;2023-01-23T02:24:59;-0.20;99.90
34766;DHT22;20984;43.508;1.504;2023-01-23T02:27:27;-0.20;99.90
34766;DHT22;20984;43.508;1.504;2023-01-23T02:29:53;-0.20;99.90
34766;DHT22;20984;43.508;1.504;2023-01-23T02:32:21;-0.20;99.90
34766;DHT22;20984;43.508;1.504;2023-01-23T02:34:50;-0.20;99.90
34766;DHT22;20984;43.508;1.504;2023-01-23T02:37:17;-0.20;99.90
34766;DHT22;20984;43.508;1.504;2023-01-23T02:39:43;-0.20;99.90
34766;DHT22;20984;43.508;1.504;2023-01-23T02:42:10;-0.20;99.90
34766;DHT22;20984;43.508;1.504;2023-01-23T02:44:35;-0.20;99.90
34766;DHT22;20984;43.508;1.504;2023-01-23T02:47:05;-0.20;99.90
34766;DHT22;20984;43.508;1.504;2023-01-23T02:49:32;-0.20;99.90
34766;DHT22;20984;43.508;1.504;2023-01-23T02:51:58;-0.20;99.90
34766;DHT22;20984;43.508;1.504;2023-01-23T02:54:25;-0.20;99.90
34766;DHT22;20984;43.508;1.504;2023-01-23T02:56:51;-0.10;99.90
34766;DHT22;20984;43.508;1.504;2023-01-23T02:59:17;-0.20;99.90
34766;DHT22;20984;43.508;1.504;2023-01-23T03:02:01;-0.20;99.90
34766;DHT22;20984;43.508;1.504;2023-01-23T03:04:28;-0.20;99.90
34766;DHT22;20984;43.508;1.504;2023-01-23T03:06:54;-0.20;99.90
34766;DHT22;20984;43.508;1.504;2023-01-23T03:09:20;-0.20;99.90
34766;DHT22;20984;43.508;1.504;2023-01-23T03:11:47;-0.20;99.90
34766;DHT22;20984;43.508;1.504;2023-01-23T03:14:16;-0.20;99.90
34766;DHT22;20984;43.508;1.504;2023-01-23T03:16:43;-0.20;99.90
34766;DHT22;20984;43.508;1.504;2023-01-23T03:19:11;-0.20;99.90
34766;DHT22;20984;43.508;1.504;2023-01-23T03:21:38;-0.20;99.90
34766;DHT22;20984;43.508;1.504;2023-01-23T03:24:06;-0.20;99.90
34766;DHT22;20984;43.508;1.504;2023-01-23T03:26:32;-0.10;99.90
34766;DHT22;20984;43.508;1.504;2023-01-23T03:28:58;-0.20;99.90
34766;DHT22;20984;43.508;1.504;2023-01-23T03:31:43;-0.20;99.90
34766;DHT22;20984;43.508;1.504;2023-01-23T03:34:09;-0.20;99.90
34766;DHT22;20984;43.508;1.504;2023-01-23T03:36:35;-0.20;99.90
34766;DHT22;20984;43.508;1.504;2023-01-23T03:39:06;-0.20;99.90
34766;DHT22;20984;43.508;1.504;2023-01-23T03:41:51;-0.20;99.90
34766;DHT22;20984;43.508;1.504;2023-01-23T03:44:18;-0.20;99.90
34766;DHT22;20984;43.508;1.504;2023-01-23T03:46:48;-0.20;99.90
34766;DHT22;20984;43.508;1.504;2023-01-23T03:49:14;-0.20;99.90
34766;DHT22;20984;43.508;1.504;2023-01-23T03:51:40;-0.10;99.90
34766;DHT22;20984;43.508;1.504;2023-01-23T03:54:06;-0.20;99.90
34766;DHT22;20984;43.508;1.504;2023-01-23T03:56:32;-0.20;99.90
34766;DHT22;20984;43.508;1.504;2023-01-23T03:58:57;-0.10;99.90
34766;DHT22;20984;43.508;1.504;2023-01-23T04:01:23;-0.20;99.90
34766;DHT22;20984;43.508;1.504;2023-01-23T04:03:49;-0.10;99.90
34766;DHT22;20984;43.508;1.504;2023-01-23T04:06:15;-0.10;99.90
34766;DHT22;20984;43.508;1.504;2023-01-23T04:08:41;-0.10;99.90
34766;DHT22;20984;43.508;1.504;2023-01-23T04:11:08;-0.10;99.90
34766;DHT22;20984;43.508;1.504;2023-01-23T04:13:34;-0.10;99.90
34766;DHT22;20984;43.508;1.504;2023-01-23T04:16:00;-0.10;99.90
34766;DHT22;20984;43.508;1.504;2023-01-23T04:18:26;-0.10;99.90
34766;DHT22;20984;43.508;1.504;2023-01-23T04:20:52;-0.10;99.90
34766;DHT22;20984;43.508;1.504;2023-01-23T04:23:18;-0.10;99.90
34766;DHT22;20984;43.508;1.504;2023-01-23T04:25:44;-0.10;99.90
34766;DHT22;20984;43.508;1.504;2023-01-23T04:28:10;-0.20;99.90
34766;DHT22;20984;43.508;1.504;2023-01-23T04:30:35;-0.10;99.90
34766;DHT22;20984;43.508;1.504;2023-01-23T04:33:01;-0.10;99.90
34766;DHT22;20984;43.508;1.504;2023-01-23T04:35:27;-0.10;99.90
34766;DHT22;20984;43.508;1.504;2023-01-23T04:37:52;-0.10;99.90
34766;DHT22;20984;43.508;1.504;2023-01-23T04:40:18;-0.10;99.90
34766;DHT22;20984;43.508;1.504;2023-01-23T04:42:44;-0.10;99.90
34766;DHT22;20984;43.508;1.504;2023-01-23T04:45:10;-0.10;99.90
34766;DHT22;20984;43.508;1.504;2023-01-23T04:47:35;-0.10;99.90
34766;DHT22;20984;43.508;1.504;2023-01-23T04:50:02;-0.10;99.90
34766;DHT22;20984;43.508;1.504;2023-01-23T04:52:28;-0.10;99.90
34766;DHT22;20984;43.508;1.504;2023-01-23T04:54:53;-0.10;99.90
34766;DHT22;20984;43.508;1.504;2023-01-23T04:57:19;-0.10;99.90
34766;DHT22;20984;43.508;1.504;2023-01-23T04:59:45;-0.10;99.90
34766;DHT22;20984;43.508;1.504;2023-01-23T05:02:11;-0.10;99.90
34766;DHT22;20984;43.508;1.504;2023-01-23T05:04:36;-0.10;99.90
34766;DHT22;20984;43.508;1.504;2023-01-23T05:07:02;-0.10;99.90
34766;DHT22;20984;43.508;1.504;2023-01-23T05:09:28;-0.10;99.90
34766;DHT22;20984;43.508;1.504;2023-01-23T05:11:54;-0.10;99.90
34766;DHT22;20984;43.508;1.504;2023-01-23T05:14:20;-0.10;99.90
34766;DHT22;20984;43.508;1.504;2023-01-23T05:16:48;-0.10;99.90
34766;DHT22;20984;43.508;1.504;2023-01-23T05:19:14;-0.10;99.90
34766;DHT22;20984;43.508;1.504;2023-01-23T05:21:40;-0.10;99.90
34766;DHT22;20984;43.508;1.504;2023-01-23T05:24:06;-0.10;99.90
34766;DHT22;20984;43.508;1.504;2023-01-23T05:26:31;-0.10;99.90
34766;DHT22;20984;43.508;1.504;2023-01-23T05:28:59;-0.20;99.90
34766;DHT22;20984;43.508;1.504;2023-01-23T05:31:25;-0.20;99.90
34766;DHT22;20984;43.508;1.504;2023-01-23T05:33:51;-0.20;99.90
34766;DHT22;20984;43.508;1.504;2023-01-23T05:36:17;-0.20;99.90
34766;DHT22;20984;43.508;1.504;2023-01-23T05:38:42;-0.10;99.90
34766;DHT22;20984;43.508;1.504;2023-01-23T05:41:08;-0.20;99.90
34766;DHT22;20984;43.508;1.504;2023-01-23T05:43:34;-0.20;99.90
34766;DHT22;20984;43.508;1.504;2023-01-23T05:46:00;-0.20;99.90
34766;DHT22;20984;43.508;1.504;2023-01-23T05:48:26;-0.20;99.90
34766;DHT22;20984;43.508;1.504;2023-01-23T05:50:51;-0.20;99.90
34766;DHT22;20984;43.508;1.504;2023-01-23T05:53:17;-0.10;99.90
34766;DHT22;20984;43.508;1.504;2023-01-23T05:55:43;-0.20;99.90
34766;DHT22;20984;43.508;1.504;2023-01-23T05:58:08;-0.20;99.90
34766;DHT22;20984;43.508;1.504;2023-01-23T06:00:34;-0.20;99.90
34766;DHT22;20984;43.508;1.504;2023-01-23T06:03:00;-0.20;99.90
34766;DHT22;20984;43.508;1.504;2023-01-23T06:05:26;-0.20;99.90
34766;DHT22;20984;43.508;1.504;2023-01-23T06:07:52;-0.20;99.90
34766;DHT22;20984;43.508;1.504;2023-01-23T06:10:18;-0.20;99.90
34766;DHT22;20984;43.508;1.504;2023-01-23T06:12:44;-0.20;99.90
34766;DHT22;20984;43.508;1.504;2023-01-23T06:15:10;-0.20;99.90
34766;DHT22;20984;43.508;1.504;2023-01-23T06:17:36;-0.20;99.90
34766;DHT22;20984;43.508;1.504;2023-01-23T06:20:03;-0.20;99.90
34766;DHT22;20984;43.508;1.504;2023-01-23T06:22:28;-0.20;99.90
34766;DHT22;20984;43.508;1.504;2023-01-23T06:24:54;-0.20;99.90
34766;DHT22;20984;43.508;1.504;2023-01-23T06:27:20;-0.20;99.90
34766;DHT22;20984;43.508;1.504;2023-01-23T06:29:46;-0.20;99.90
34766;DHT22;20984;43.508;1.504;2023-01-23T06:32:12;-0.20;99.90
34766;DHT22;20984;43.508;1.504;2023-01-23T06:34:38;-0.20;99.90
34766;DHT22;20984;43.508;1.504;2023-01-23T06:37:03;-0.20;99.90
34766;DHT22;20984;43.508;1.504;2023-01-23T06:39:29;-0.20;99.90
34766;DHT22;20984;43.508;1.504;2023-01-23T06:41:55;-0.20;99.90
34766;DHT22;20984;43.508;1.504;2023-01-23T06:44:22;-0.20;99.90
34766;DHT22;20984;43.508;1.504;2023-01-23T06:46:48;-0.20;99.90
34766;DHT22;20984;43.508;1.504;2023-01-23T06:49:13;-0.20;99.90
34766;DHT22;20984;43.508;1.504;2023-01-23T06:51:39;-0.20;99.90
34766;DHT22;20984;43.508;1.504;2023-01-23T06:54:05;-0.30;99.90
34766;DHT22;20984;43.508;1.504;2023-01-23T06:56:31;-0.30;99.90
34766;DHT22;20984;43.508;1.504;2023-01-23T06:58:56;-0.30;99.90
34766;DHT22;20984;43.508;1.504;2023-01-23T07:01:22;-0.30;99.90
34766;DHT22;20984;43.508;1.504;2023-01-23T07:03:48;-0.30;99.90
34766;DHT22;20984;43.508;1.504;2023-01-23T07:06:15;-0.30;99.90
34766;DHT22;20984;43.508;1.504;2023-01-23T07:08:41;-0.20;99.90
34766;DHT22;20984;43.508;1.504;2023-01-23T07:11:07;-0.20;99.90
34766;DHT22;20984;43.508;1.504;2023-01-23T07:13:34;-0.20;99.90
34766;DHT22;20984;43.508;1.504;2023-01-23T07:16:00;-0.20;99.90
34766;DHT22;20984;43.508;1.504;2023-01-23T07:18:25;-0.30;99.90
34766;DHT22;20984;43.508;1.504;2023-01-23T07:20:53;-0.30;99.90
34766;DHT22;20984;43.508;1.504;2023-01-23T07:23:19;-0.30;99.90
34766;DHT22;20984;43.508;1.504;2023-01-23T07:25:45;-0.30;99.90
34766;DHT22;20984;43.508;1.504;2023-01-23T07:28:11;-0.30;99.90
34766;DHT22;20984;43.508;1.504;2023-01-23T07:30:37;-0.20;99.90
34766;DHT22;20984;43.508;1.504;2023-01-23T07:33:03;-0.20;99.90
34766;DHT22;20984;43.508;1.504;2023-01-23T07:35:29;-0.20;99.90
34766;DHT22;20984;43.508;1.504;2023-01-23T07:37:55;-0.20;99.90
34766;DHT22;20984;43.508;1.504;2023-01-23T07:40:21;-0.20;99.90
34766;DHT22;20984;43.508;1.504;2023-01-23T07:42:46;-0.20;99.90
34766;DHT22;20984;43.508;1.504;2023-01-23T07:45:12;-0.20;99.90
34766;DHT22;20984;43.508;1.504;2023-01-23T07:47:39;-0.30;99.90
34766;DHT22;20984;43.508;1.504;2023-01-23T07:50:11;-0.20;99.90
34766;DHT22;20984;43.508;1.504;2023-01-23T07:52:38;-0.30;99.90
34766;DHT22;20984;43.508;1.504;2023-01-23T07:55:04;-0.20;99.90
34766;DHT22;20984;43.508;1.504;2023-01-23T07:57:30;-0.20;99.90
34766;DHT22;20984;43.508;1.504;2023-01-23T07:59:58;-0.20;99.90
34766;DHT22;20984;43.508;1.504;2023-01-23T08:02:24;-0.20;99.90
34766;DHT22;20984;43.508;1.504;2023-01-23T08:04:49;-0.20;99.90
34766;DHT22;20984;43.508;1.504;2023-01-23T08:07:15;-0.20;99.90
34766;DHT22;20984;43.508;1.504;2023-01-23T08:09:41;-0.20;99.90
34766;DHT22;20984;43.508;1.504;2023-01-23T08:12:06;-0.20;99.90
34766;DHT22;20984;43.508;1.504;2023-01-23T08:14:32;-0.10;99.90
34766;DHT22;20984;43.508;1.504;2023-01-23T08:16:58;-0.10;99.90
34766;DHT22;20984;43.508;1.504;2023-01-23T08:19:24;-0.10;99.90
34766;DHT22;20984;43.508;1.504;2023-01-23T08:21:52;-0.10;99.90
34766;DHT22;20984;43.508;1.504;2023-01-23T08:24:18;-0.10;99.90
34766;DHT22;20984;43.508;1.504;2023-01-23T08:26:44;-0.10;99.90
34766;DHT22;20984;43.508;1.504;2023-01-23T08:29:09;-0.10;99.90
34766;DHT22;20984;43.508;1.504;2023-01-23T08:31:36;-0.10;99.90
34766;DHT22;20984;43.508;1.504;2023-01-23T08:34:02;-0.10;99.90
34766;DHT22;20984;43.508;1.504;2023-01-23T08:36:28;0.00;99.90
34766;DHT22;20984;43.508;1.504;2023-01-23T08:38:53;-0.10;99.90
34766;DHT22;20984;43.508;1.504;2023-01-23T08:41:20;-0.10;99.90
34766;DHT22;20984;43.508;1.504;2023-01-23T08:43:46;0.00;99.90
34766;DHT22;20984;43.508;1.504;2023-01-23T08:46:12;0.00;99.90
34766;DHT22;20984;43.508;1.504;2023-01-23T08:48:37;0.00;99.90
34766;DHT22;20984;43.508;1.504;2023-01-23T08:51:06;0.00;99.90
34766;DHT22;20984;43.508;1.504;2023-01-23T08:53:32;0.10;99.90
34766;DHT22;20984;43.508;1.504;2023-01-23T08:56:06;0.10;99.90
34766;DHT22;20984;43.508;1.504;2023-01-23T08:58:33;0.10;99.90
34766;DHT22;20984;43.508;1.504;2023-01-23T09:00:59;0.10;99.90
34766;DHT22;20984;43.508;1.504;2023-01-23T09:03:25;0.10;99.90
34766;DHT22;20984;43.508;1.504;2023-01-23T09:05:51;0.10;99.90
34766;DHT22;20984;43.508;1.504;2023-01-23T09:08:17;0.20;99.90
34766;DHT22;20984;43.508;1.504;2023-01-23T09:10:42;0.20;99.90
34766;DHT22;20984;43.508;1.504;2023-01-23T09:13:08;0.20;99.90
34766;DHT22;20984;43.508;1.504;2023-01-23T09:15:37;0.20;99.90
34766;DHT22;20984;43.508;1.504;2023-01-23T09:18:03;0.20;99.90
34766;DHT22;20984;43.508;1.504;2023-01-23T09:20:29;0.20;99.90
34766;DHT22;20984;43.508;1.504;2023-01-23T09:22:55;0.20;99.90
34766;DHT22;20984;43.508;1.504;2023-01-23T09:25:21;0.20;99.90
34766;DHT22;20984;43.508;1.504;2023-01-23T09:27:46;0.20;99.90
34766;DHT22;20984;43.508;1.504;2023-01-23T09:30:12;0.20;99.90
34766;DHT22;20984;43.508;1.504;2023-01-23T09:32:38;0.20;99.90
34766;DHT22;20984;43.508;1.504;2023-01-23T09:35:04;0.20;99.90
34766;DHT22;20984;43.508;1.504;2023-01-23T09:37:31;0.20;99.90
34766;DHT22;20984;43.508;1.504;2023-01-23T09:40:18;0.20;99.90
34766;DHT22;20984;43.508;1.504;2023-01-23T09:42:47;0.20;99.90
34766;DHT22;20984;43.508;1.504;2023-01-23T09:45:18;0.20;99.90
34766;DHT22;20984;43.508;1.504;2023-01-23T09:47:58;0.30;99.90
34766;DHT22;20984;43.508;1.504;2023-01-23T09:50:32;0.20;99.90
34766;DHT22;20984;43.508;1.504;2023-01-23T09:53:05;0.20;99.90
34766;DHT22;20984;43.508;1.504;2023-01-23T09:55:43;0.20;99.90
34766;DHT22;20984;43.508;1.504;2023-01-23T09:58:33;0.20;99.90
34766;DHT22;20984;43.508;1.504;2023-01-23T10:01:00;0.30;99.90
34766;DHT22;20984;43.508;1.504;2023-01-23T10:03:29;0.30;99.90
34766;DHT22;20984;43.508;1.504;2023-01-23T10:14:01;0.40;99.90
34766;DHT22;20984;43.508;1.504;2023-01-23T10:26:55;0.30;99.90
34766;DHT22;20984;43.508;1.504;2023-01-23T10:29:33;0.30;99.90
34766;DHT22;20984;43.508;1.504;2023-01-23T10:32:01;0.30;99.90
34766;DHT22;20984;43.508;1.504;2023-01-23T10:34:42;0.30;99.90
34766;DHT22;20984;43.508;1.504;2023-01-23T10:37:32;0.40;99.90
34766;DHT22;20984;43.508;1.504;2023-01-23T10:40:08;0.40;99.90
34766;DHT22;20984;43.508;1.504;2023-01-23T10:42:35;0.40;99.90
34766;DHT22;20984;43.508;1.504;2023-01-23T10:45:01;0.40;99.90
34766;DHT22;20984;43.508;1.504;2023-01-23T10:49:52;0.40;99.90
34766;DHT22;20984;43.508;1.504;2023-01-23T10:52:43;0.40;99.90
34766;DHT22;20984;43.508;1.504;2023-01-23T10:55:29;0.40;99.90
34766;DHT22;20984;43.508;1.504;2023-01-23T10:57:58;0.40;99.90
34766;DHT22;20984;43.508;1.504;2023-01-23T11:02:52;0.40;99.90
34766;DHT22;20984;43.508;1.504;2023-01-23T11:05:40;0.40;99.90
34766;DHT22;20984;43.508;1.504;2023-01-23T11:08:26;0.40;99.90
34766;DHT22;20984;43.508;1.504;2023-01-23T11:10:57;0.40;99.90
34766;DHT22;20984;43.508;1.504;2023-01-23T11:13:36;0.40;99.90
34766;DHT22;20984;43.508;1.504;2023-01-23T11:16:01;0.30;99.90
34766;DHT22;20984;43.508;1.504;2023-01-23T11:18:32;0.40;99.90
34766;DHT22;20984;43.508;1.504;2023-01-23T11:20:59;0.40;99.90
34766;DHT22;20984;43.508;1.504;2023-01-23T11:23:26;0.40;99.90
34766;DHT22;20984;43.508;1.504;2023-01-23T11:25:53;0.40;99.90
34766;DHT22;20984;43.508;1.504;2023-01-23T11:39:04;0.50;99.90
34766;DHT22;20984;43.508;1.504;2023-01-23T11:41:38;0.50;99.90
34766;DHT22;20984;43.508;1.504;2023-01-23T11:44:15;0.50;99.90
34766;DHT22;20984;43.508;1.504;2023-01-23T12:17:04;0.60;99.90
34766;DHT22;20984;43.508;1.504;2023-01-23T12:20:14;0.60;99.90
34766;DHT22;20984;43.508;1.504;2023-01-23T12:23:15;0.70;99.90
34766;DHT22;20984;43.508;1.504;2023-01-23T12:34:23;0.70;99.90
34766;DHT22;20984;43.508;1.504;2023-01-23T12:40:18;0.70;99.90
34766;DHT22;20984;43.508;1.504;2023-01-23T12:45:32;0.60;99.90
34766;DHT22;20984;43.508;1.504;2023-01-23T12:50:53;0.60;99.90
34766;DHT22;20984;43.508;1.504;2023-01-23T12:53:21;0.60;99.90
34766;DHT22;20984;43.508;1.504;2023-01-23T12:58:30;0.60;99.90
34766;DHT22;20984;43.508;1.504;2023-01-23T13:01:05;0.70;99.90
34766;DHT22;20984;43.508;1.504;2023-01-23T13:06:12;0.60;99.90
34766;DHT22;20984;43.508;1.504;2023-01-23T13:08:54;0.60;99.90
34766;DHT22;20984;43.508;1.504;2023-01-23T13:11:40;0.70;99.90
34766;DHT22;20984;43.508;1.504;2023-01-23T13:16:57;0.60;99.90
34766;DHT22;20984;43.508;1.504;2023-01-23T13:19:25;0.60;99.90
34766;DHT22;20984;43.508;1.504;2023-01-23T13:22:30;0.60;99.90
34766;DHT22;20984;43.508;1.504;2023-01-23T13:25:11;0.60;99.90
34766;DHT22;20984;43.508;1.504;2023-01-23T13:32:55;0.60;99.90
34766;DHT22;20984;43.508;1.504;2023-01-23T13:49:11;0.70;99.90
34766;DHT22;20984;43.508;1.504;2023-01-23T13:51:59;0.70;99.90
34766;DHT22;20984;43.508;1.504;2023-01-23T13:54:30;0.60;99.90
34766;DHT22;20984;43.508;1.504;2023-01-23T13:57:18;0.60;99.90
34766;DHT22;20984;43.508;1.504;2023-01-23T13:59:49;0.60;99.90
34766;DHT22;20984;43.508;1.504;2023-01-23T14:02:28;0.60;99.90
34766;DHT22;20984;43.508;1.504;2023-01-23T14:05:20;0.60;99.90
34766;DHT22;20984;43.508;1.504;2023-01-23T14:07:47;0.60;99.90
34766;DHT22;20984;43.508;1.504;2023-01-23T14:10:25;0.60;99.90
34766;DHT22;20984;43.508;1.504;2023-01-23T14:13:05;0.70;99.90
34766;DHT22;20984;43.508;1.504;2023-01-23T14:15:33;0.60;99.90
34766;DHT22;20984;43.508;1.504;2023-01-23T14:18:28;0.60;99.90
34766;DHT22;20984;43.508;1.504;2023-01-23T14:21:13;0.60;99.90
34766;DHT22;20984;43.508;1.504;2023-01-23T14:23:41;0.60;99.90
34766;DHT22;20984;43.508;1.504;2023-01-23T14:26:14;0.60;99.90
34766;DHT22;20984;43.508;1.504;2023-01-23T14:31:27;0.60;99.90
34766;DHT22;20984;43.508;1.504;2023-01-23T14:34:02;0.70;99.90
34766;DHT22;20984;43.508;1.504;2023-01-23T14:36:30;0.70;99.90
34766;DHT22;20984;43.508;1.504;2023-01-23T14:38:57;0.70;99.90
34766;DHT22;20984;43.508;1.504;2023-01-23T14:41:26;0.70;99.90
34766;DHT22;20984;43.508;1.504;2023-01-23T14:43:57;0.70;99.90
34766;DHT22;20984;43.508;1.504;2023-01-23T14:46:38;0.70;99.90
34766;DHT22;20984;43.508;1.504;2023-01-23T14:49:06;0.70;99.90
34766;DHT22;20984;43.508;1.504;2023-01-23T14:51:33;0.70;99.90
34766;DHT22;20984;43.508;1.504;2023-01-23T14:54:03;0.70;99.90
34766;DHT22;20984;43.508;1.504;2023-01-23T14:56:34;0.70;99.90
34766;DHT22;20984;43.508;1.504;2023-01-23T14:59:07;0.70;99.90
34766;DHT22;20984;43.508;1.504;2023-01-23T15:01:39;0.70;99.90
34766;DHT22;20984;43.508;1.504;2023-01-23T15:04:18;0.70;99.90
34766;DHT22;20984;43.508;1.504;2023-01-23T15:06:58;0.70;99.90
34766;DHT22;20984;43.508;1.504;2023-01-23T15:09:35;0.80;99.90
34766;DHT22;20984;43.508;1.504;2023-01-23T15:12:07;0.70;99.90
34766;DHT22;20984;43.508;1.504;2023-01-23T15:14:37;0.70;99.90
34766;DHT22;20984;43.508;1.504;2023-01-23T15:17:17;0.80;99.90
34766;DHT22;20984;43.508;1.504;2023-01-23T15:19:47;0.80;99.90
34766;DHT22;20984;43.508;1.504;2023-01-23T15:22:40;0.80;99.90
34766;DHT22;20984;43.508;1.504;2023-01-23T15:25:25;0.80;99.90
34766;DHT22;20984;43.508;1.504;2023-01-23T15:27:51;0.80;99.90
34766;DHT22;20984;43.508;1.504;2023-01-23T15:30:36;0.80;99.90
34766;DHT22;20984;43.508;1.504;2023-01-23T15:33:22;0.80;99.90
34766;DHT22;20984;43.508;1.504;2023-01-23T15:35:48;0.80;99.90
34766;DHT22;20984;43.508;1.504;2023-01-23T15:38:16;0.80;99.90
34766;DHT22;20984;43.508;1.504;2023-01-23T15:40:41;0.80;99.90
34766;DHT22;20984;43.508;1.504;2023-01-23T15:43:13;0.80;99.90
34766;DHT22;20984;43.508;1.504;2023-01-23T15:45:40;0.80;99.90
34766;DHT22;20984;43.508;1.504;2023-01-23T15:48:05;0.80;99.90
34766;DHT22;20984;43.508;1.504;2023-01-23T15:50:31;0.80;99.90
34766;DHT22;20984;43.508;1.504;2023-01-23T15:52:57;0.80;99.90
34766;DHT22;20984;43.508;1.504;2023-01-23T15:55:24;0.70;99.90
34766;DHT22;20984;43.508;1.504;2023-01-23T15:57:51;0.80;99.90
34766;DHT22;20984;43.508;1.504;2023-01-23T16:00:23;0.70;99.90
34766;DHT22;20984;43.508;1.504;2023-01-23T16:02:50;0.70;99.90
34766;DHT22;20984;43.508;1.504;2023-01-23T16:05:18;0.70;99.90
34766;DHT22;20984;43.508;1.504;2023-01-23T16:07:44;0.70;99.90
34766;DHT22;20984;43.508;1.504;2023-01-23T16:10:24;0.70;99.90
34766;DHT22;20984;43.508;1.504;2023-01-23T16:12:52;0.70;99.90
34766;DHT22;20984;43.508;1.504;2023-01-23T16:15:26;0.70;99.90
34766;DHT22;20984;43.508;1.504;2023-01-23T16:17:52;0.70;99.90
34766;DHT22;20984;43.508;1.504;2023-01-23T16:20:19;0.70;99.90
34766;DHT22;20984;43.508;1.504;2023-01-23T16:22:49;0.70;99.90
34766;DHT22;20984;43.508;1.504;2023-01-23T16:25:38;0.70;99.90
34766;DHT22;20984;43.508;1.504;2023-01-23T16:28:16;0.70;99.90
34766;DHT22;20984;43.508;1.504;2023-01-23T16:30:42;0.60;99.90
34766;DHT22;20984;43.508;1.504;2023-01-23T16:33:08;0.70;99.90
34766;DHT22;20984;43.508;1.504;2023-01-23T16:35:34;0.60;99.90
34766;DHT22;20984;43.508;1.504;2023-01-23T16:38:00;0.60;99.90
34766;DHT22;20984;43.508;1.504;2023-01-23T16:40:27;0.60;99.90
34766;DHT22;20984;43.508;1.504;2023-01-23T16:42:55;0.60;99.90
34766;DHT22;20984;43.508;1.504;2023-01-23T16:45:31;0.60;99.90
34766;DHT22;20984;43.508;1.504;2023-01-23T16:47:57;0.60;99.90
34766;DHT22;20984;43.508;1.504;2023-01-23T16:50:34;0.60;99.90
34766;DHT22;20984;43.508;1.504;2023-01-23T16:53:09;0.60;99.90
34766;DHT22;20984;43.508;1.504;2023-01-23T16:55:40;0.60;99.90
34766;DHT22;20984;43.508;1.504;2023-01-23T16:58:09;0.60;99.90
34766;DHT22;20984;43.508;1.504;2023-01-23T17:00:37;0.60;99.90
34766;DHT22;20984;43.508;1.504;2023-01-23T17:03:07;0.60;99.90
34766;DHT22;20984;43.508;1.504;2023-01-23T17:05:34;0.60;99.90
34766;DHT22;20984;43.508;1.504;2023-01-23T17:08:01;0.60;99.90
34766;DHT22;20984;43.508;1.504;2023-01-23T17:10:33;0.60;99.90
34766;DHT22;20984;43.508;1.504;2023-01-23T17:12:59;0.60;99.90
34766;DHT22;20984;43.508;1.504;2023-01-23T17:15:29;0.60;99.90
34766;DHT22;20984;43.508;1.504;2023-01-23T17:17:59;0.60;99.90
34766;DHT22;20984;43.508;1.504;2023-01-23T17:20:26;0.60;99.90
34766;DHT22;20984;43.508;1.504;2023-01-23T17:22:55;0.60;99.90
34766;DHT22;20984;43.508;1.504;2023-01-23T17:25:23;0.60;99.90
34766;DHT22;20984;43.508;1.504;2023-01-23T17:27:49;0.60;99.90
34766;DHT22;20984;43.508;1.504;2023-01-23T17:30:21;0.60;99.90
34766;DHT22;20984;43.508;1.504;2023-01-23T17:32:50;0.60;99.90
34766;DHT22;20984;43.508;1.504;2023-01-23T17:35:20;0.60;99.90
34766;DHT22;20984;43.508;1.504;2023-01-23T17:37:46;0.60;99.90
34766;DHT22;20984;43.508;1.504;2023-01-23T17:40:13;0.60;99.90
34766;DHT22;20984;43.508;1.504;2023-01-23T17:42:39;0.60;99.90
34766;DHT22;20984;43.508;1.504;2023-01-23T17:45:05;0.60;99.90
34766;DHT22;20984;43.508;1.504;2023-01-23T17:47:33;0.60;99.90
34766;DHT22;20984;43.508;1.504;2023-01-23T17:49:59;0.60;99.90